Time;durP1;ratioP1;P1;durP2;ratioP2;P2;SDS_P1;SDS_P2;PMS_P1;PMS_P2;Temp;Humidity;BMP_temperature;BMP_pressure;BME280_temperature;BME280_humidity;BME280_pressure;Samples;Min_cycle;Max_cycle;Signal;HPM_P1;HPM_P2
2023/08/30 00:00:45;;;;;;;10.73;5.27;;;14.30;99.90;;;;;;7288991;19;20230;-77
2023/08/30 00:03:12;;;;;;;10.83;5.03;;;14.20;99.90;;;;;;7286125;19;20645;-77
2023/08/30 00:05:41;;;;;;;9.73;4.60;;;14.10;99.90;;;;;;7289001;19;20569;-77
2023/08/30 00:08:07;;;;;;;10.03;5.07;;;14.20;99.90;;;;;;7287316;19;20221;-77
2023/08/30 00:10:33;;;;;;;10.03;5.03;;;14.30;99.90;;;;;;7287497;19;20222;-78
2023/08/30 00:12:59;;;;;;;11.23;5.20;;;14.30;99.90;;;;;;7308892;19;20196;-77
2023/08/30 00:15:25;;;;;;;10.67;5.17;;;14.30;99.90;;;;;;7298092;19;20184;-77
2023/08/30 00:17:54;;;;;;;9.70;5.57;;;14.30;99.90;;;;;;7287299;19;21084;-78
2023/08/30 00:20:21;;;;;;;12.63;5.57;;;14.30;99.90;;;;;;7287608;19;20245;-78
2023/08/30 00:22:50;;;;;;;12.37;5.40;;;14.20;99.90;;;;;;7286126;19;20257;-78
2023/08/30 00:25:17;;;;;;;13.40;5.20;;;14.20;99.90;;;;;;7287868;19;20189;-78
2023/08/30 00:27:42;;;;;;;10.23;5.50;;;14.10;99.90;;;;;;7287842;19;20272;-77
2023/08/30 00:30:09;;;;;;;12.20;4.93;;;14.00;99.90;;;;;;7287014;19;20564;-77
2023/08/30 00:32:35;;;;;;;9.83;4.80;;;13.90;99.90;;;;;;7287023;19;20190;-77
2023/08/30 00:35:01;;;;;;;8.40;4.90;;;13.80;99.90;;;;;;7287415;19;20194;-77
2023/08/30 00:37:27;;;;;;;9.57;5.47;;;13.80;99.90;;;;;;7307478;19;20276;-77
2023/08/30 00:39:53;;;;;;;11.03;5.33;;;13.70;99.90;;;;;;7286945;19;20268;-77
2023/08/30 00:42:19;;;;;;;10.17;5.30;;;13.70;99.90;;;;;;7285190;19;20532;-77
2023/08/30 00:44:45;;;;;;;11.90;5.87;;;13.90;99.90;;;;;;7285715;19;20188;-78
2023/08/30 00:47:11;;;;;;;12.87;5.63;;;14.10;99.90;;;;;;7286798;19;20196;-77
2023/08/30 00:49:37;;;;;;;11.40;6.27;;;14.10;99.90;;;;;;7285228;19;20225;-77
2023/08/30 00:52:07;;;;;;;15.73;6.90;;;14.20;99.90;;;;;;7285071;19;20975;-78
2023/08/30 00:54:34;;;;;;;11.57;6.33;;;14.30;99.90;;;;;;7283998;19;20294;-76
2023/08/30 00:57:01;;;;;;;10.77;6.30;;;14.30;99.90;;;;;;7296864;19;20184;-77
2023/08/30 00:59:29;;;;;;;12.47;6.60;;;14.30;99.90;;;;;;7305662;19;20206;-77
2023/08/30 01:01:55;;;;;;;12.27;5.80;;;14.30;99.90;;;;;;7283474;19;20189;-78
2023/08/30 01:04:22;;;;;;;13.40;6.73;;;14.30;99.90;;;;;;7283005;19;20283;-77
2023/08/30 01:06:48;;;;;;;12.57;6.50;;;14.40;99.90;;;;;;7284589;19;20270;-77
2023/08/30 01:09:15;;;;;;;17.83;6.90;;;14.50;99.90;;;;;;7283078;19;20285;-78
2023/08/30 01:11:53;;;;;;;15.63;7.27;;;14.60;99.90;;;;;;7282927;19;20196;-77
2023/08/30 01:14:25;;;;;;;12.60;6.53;;;14.60;99.90;;;;;;7283647;19;20811;-78
2023/08/30 01:16:51;;;;;;;11.83;6.87;;;14.70;99.90;;;;;;7282250;19;22104;-78
2023/08/30 01:19:43;;;;;;;14.17;7.03;;;14.60;99.90;;;;;;7283705;19;20189;-78
2023/08/30 01:22:25;;;;;;;12.87;6.30;;;14.50;99.90;;;;;;7181468;19;2006124;-77
2023/08/30 01:25:15;;;;;;;13.63;7.40;;;14.40;99.90;;;;;;7285975;19;20184;-77
2023/08/30 01:27:42;;;;;;;11.40;6.67;;;14.40;99.90;;;;;;7182271;19;2006097;-77
2023/08/30 01:30:10;;;;;;;14.40;7.10;;;14.40;99.90;;;;;;7284607;19;20249;-77
2023/08/30 01:32:37;;;;;;;14.40;7.10;;;14.40;99.90;;;;;;7285496;19;20185;-78
2023/08/30 01:35:19;;;;;;;14.03;7.33;;;14.20;99.90;;;;;;7279803;19;20192;-79
2023/08/30 01:37:47;;;;;;;11.40;7.20;;;14.20;99.90;;;;;;7284295;19;20265;-77
2023/08/30 01:40:15;;;;;;;11.50;6.80;;;14.10;99.90;;;;;;7284719;19;20197;-78
2023/08/30 01:42:44;;;;;;;12.80;7.40;;;14.00;99.90;;;;;;7284348;19;20209;-78
2023/08/30 01:45:13;;;;;;;14.03;7.70;;;13.90;99.90;;;;;;7284129;19;20650;-77
2023/08/30 01:47:42;;;;;;;15.47;7.83;;;13.80;99.90;;;;;;7285997;19;20197;-77
2023/08/30 01:50:09;;;;;;;14.50;7.60;;;13.80;99.90;;;;;;7283825;19;20193;-77
2023/08/30 01:52:35;;;;;;;11.03;7.47;;;13.80;99.90;;;;;;7282647;19;20262;-77
2023/08/30 01:55:03;;;;;;;13.70;7.50;;;13.70;99.90;;;;;;7284080;19;20189;-76
2023/08/30 01:57:30;;;;;;;16.53;7.87;;;13.80;99.90;;;;;;7295215;19;20624;-76
2023/08/30 01:59:56;;;;;;;12.03;7.63;;;13.80;99.90;;;;;;7304332;19;20189;-77
2023/08/30 02:02:22;;;;;;;13.63;7.20;;;13.90;99.90;;;;;;7282507;19;20649;-77
2023/08/30 02:04:47;;;;;;;14.57;7.83;;;13.90;99.90;;;;;;7283689;19;20649;-77
2023/08/30 02:07:35;;;;;;;12.63;7.40;;;13.80;99.90;;;;;;7284731;19;20543;-77
2023/08/30 02:10:06;;;;;;;13.50;7.50;;;13.80;99.90;;;;;;7262401;19;20289;-77
2023/08/30 02:12:47;;;;;;;15.50;7.27;;;13.80;99.90;;;;;;7284793;19;20209;-78
2023/08/30 02:15:14;;;;;;;14.03;7.23;;;13.80;99.90;;;;;;7284835;19;20196;-78
2023/08/30 02:17:40;;;;;;;12.97;7.37;;;13.80;99.90;;;;;;7283481;19;20195;-78
2023/08/30 02:20:07;;;;;;;12.63;7.33;;;13.80;99.90;;;;;;7283927;19;20291;-78
2023/08/30 02:22:33;;;;;;;14.87;7.67;;;13.80;99.90;;;;;;7283152;19;20200;-78
2023/08/30 02:25:04;;;;;;;15.23;7.83;;;13.80;99.90;;;;;;7303208;19;20188;-77
2023/08/30 02:27:31;;;;;;;16.70;8.10;;;13.90;99.90;;;;;;7300375;19;20649;-76
2023/08/30 02:29:57;;;;;;;13.57;8.20;;;13.90;99.90;;;;;;7304459;19;20193;-78
2023/08/30 02:32:24;;;;;;;19.60;8.97;;;14.00;99.90;;;;;;7285890;19;20210;-78
2023/08/30 02:34:51;;;;;;;14.70;8.10;;;14.00;99.90;;;;;;7283028;19;20186;-78
2023/08/30 02:37:20;;;;;;;17.37;8.33;;;14.10;99.90;;;;;;7282998;19;20679;-77
2023/08/30 02:39:45;;;;;;;17.47;7.60;;;14.10;99.90;;;;;;7284346;19;20219;-78
2023/08/30 02:42:11;;;;;;;15.23;8.67;;;14.10;99.90;;;;;;7280277;19;20526;-78
2023/08/30 02:44:37;;;;;;;14.33;7.83;;;14.10;99.90;;;;;;7283901;19;20209;-77
2023/08/30 02:47:03;;;;;;;14.00;7.77;;;14.20;99.90;;;;;;7283331;19;20799;-77
2023/08/30 02:49:28;;;;;;;15.47;7.87;;;14.30;99.90;;;;;;7303716;19;20201;-77
2023/08/30 02:51:54;;;;;;;15.67;8.20;;;14.30;99.90;;;;;;7283739;19;20193;-78
2023/08/30 02:54:22;;;;;;;16.17;7.73;;;14.40;99.90;;;;;;7283268;19;20257;-77
2023/08/30 02:56:48;;;;;;;15.10;8.10;;;14.60;99.90;;;;;;7282497;19;20323;-76
2023/08/30 02:59:14;;;;;;;13.77;7.60;;;14.70;99.90;;;;;;7279300;19;20190;-77
2023/08/30 03:01:40;;;;;;;17.70;8.30;;;14.80;99.90;;;;;;7281819;19;20536;-77
2023/08/30 03:04:07;;;;;;;16.63;8.03;;;14.90;99.90;;;;;;7281070;19;20987;-77
2023/08/30 03:06:34;;;;;;;16.17;7.43;;;15.00;99.90;;;;;;7282747;19;20255;-76
2023/08/30 03:09:00;;;;;;;17.10;7.80;;;15.00;99.90;;;;;;7297474;19;20601;-76
2023/08/30 03:11:26;;;;;;;18.00;8.27;;;15.10;99.90;;;;;;7301189;19;20218;-77
2023/08/30 03:13:55;;;;;;;16.43;7.93;;;15.20;99.90;;;;;;7286030;19;20289;-77
2023/08/30 03:16:21;;;;;;;16.50;7.93;;;15.20;99.90;;;;;;7288523;19;20172;-77
2023/08/30 03:18:47;;;;;;;17.33;7.27;;;15.20;99.90;;;;;;7290224;19;20924;-77
2023/08/30 03:21:14;;;;;;;16.80;7.57;;;15.30;99.90;;;;;;7288628;19;20678;-77
2023/08/30 03:23:41;;;;;;;15.23;6.90;;;15.40;99.90;;;;;;7285983;19;20182;-77
2023/08/30 03:26:12;;;;;;;19.37;7.53;;;15.50;99.90;;;;;;7289939;19;20587;-77
2023/08/30 03:28:39;;;;;;;16.93;7.83;;;15.50;99.90;;;;;;7287028;19;20195;-77
2023/08/30 03:31:18;;;;;;;17.07;7.67;;;15.60;99.90;;;;;;7287857;19;20190;-78
2023/08/30 03:33:46;;;;;;;18.63;7.53;;;15.60;99.90;;;;;;7288716;19;20185;-78
2023/08/30 03:36:15;;;;;;;16.83;7.43;;;15.60;99.90;;;;;;7287327;19;20213;-77
2023/08/30 03:38:41;;;;;;;15.77;7.33;;;15.50;99.90;;;;;;7288607;19;20195;-77
2023/08/30 03:41:08;;;;;;;16.83;6.63;;;15.60;99.90;;;;;;7288469;19;20202;-77
2023/08/30 03:43:34;;;;;;;16.67;7.00;;;15.60;99.90;;;;;;7287335;19;20198;-76
2023/08/30 03:46:00;;;;;;;15.53;7.07;;;15.50;99.90;;;;;;7311374;19;20199;-77
2023/08/30 03:48:27;;;;;;;16.23;6.50;;;15.50;99.90;;;;;;7288843;19;20615;-77
2023/08/30 03:50:54;;;;;;;16.73;7.07;;;15.60;99.90;;;;;;7286943;19;20184;-77
2023/08/30 03:53:20;;;;;;;17.13;6.63;;;15.60;99.90;;;;;;7287990;19;20211;-78
2023/08/30 03:55:46;;;;;;;14.77;7.07;;;15.60;99.90;;;;;;7286577;19;20191;-77
2023/08/30 03:58:12;;;;;;;16.93;6.87;;;15.70;99.90;;;;;;7286737;19;20264;-78
2023/08/30 04:00:38;;;;;;;14.97;6.80;;;15.70;99.90;;;;;;7286100;19;20199;-76
2023/08/30 04:03:11;;;;;;;15.97;6.53;;;15.60;99.90;;;;;;7284283;19;20679;-76
2023/08/30 04:05:37;;;;;;;15.80;6.40;;;15.70;99.90;;;;;;7287179;19;20184;-77
2023/08/30 04:08:04;;;;;;;14.50;6.67;;;15.60;99.90;;;;;;7287060;19;20189;-77
2023/08/30 04:10:40;;;;;;;15.13;6.70;;;15.60;99.90;;;;;;7301197;19;20225;-76
2023/08/30 04:13:08;;;;;;;13.90;5.97;;;15.50;99.90;;;;;;7287826;19;20218;-78
2023/08/30 04:15:38;;;;;;;13.33;6.47;;;15.50;99.90;;;;;;7286125;19;20194;-77
2023/08/30 04:18:05;;;;;;;13.20;6.27;;;15.60;99.90;;;;;;7286956;19;20208;-78
2023/08/30 04:20:33;;;;;;;12.90;6.07;;;15.70;99.90;;;;;;7290478;19;20193;-76
2023/08/30 04:23:01;;;;;;;13.20;6.27;;;15.70;99.90;;;;;;7308181;19;20977;-78
2023/08/30 04:25:29;;;;;;;12.20;5.97;;;15.70;99.90;;;;;;7286093;19;20695;-78
2023/08/30 04:27:54;;;;;;;15.50;6.77;;;15.80;99.90;;;;;;7286952;19;20185;-77
2023/08/30 04:30:22;;;;;;;17.67;7.70;;;15.80;99.90;;;;;;7285585;19;20195;-77
2023/08/30 04:32:48;;;;;;;19.40;8.13;;;15.80;99.90;;;;;;7288063;19;20183;-78
2023/08/30 04:35:14;;;;;;;19.30;8.20;;;15.80;99.90;;;;;;7286564;19;20631;-78
2023/08/30 04:37:42;;;;;;;21.57;8.60;;;15.70;99.90;;;;;;7286458;19;20265;-77
2023/08/30 04:40:11;;;;;;;22.10;8.93;;;15.50;99.90;;;;;;7287356;19;21041;-77
2023/08/30 04:42:39;;;;;;;21.00;8.83;;;15.50;99.90;;;;;;7286990;19;20975;-77
2023/08/30 04:45:06;;;;;;;20.30;8.67;;;15.50;99.90;;;;;;7289366;19;20199;-77
2023/08/30 04:47:32;;;;;;;21.97;8.17;;;15.50;99.90;;;;;;7287285;19;20192;-77
2023/08/30 04:50:00;;;;;;;17.50;8.50;;;15.40;99.90;;;;;;7306997;19;20191;-77
2023/08/30 04:52:26;;;;;;;18.10;8.40;;;15.40;99.90;;;;;;7286508;19;20192;-77
2023/08/30 04:54:54;;;;;;;18.33;8.13;;;15.30;99.90;;;;;;7286316;19;20727;-77
2023/08/30 04:57:22;;;;;;;17.73;8.60;;;15.20;99.90;;;;;;7282643;19;20679;-78
2023/08/30 04:59:48;;;;;;;21.70;9.97;;;15.10;99.90;;;;;;7283989;19;20195;-78
2023/08/30 05:02:15;;;;;;;24.50;11.70;;;15.00;99.90;;;;;;7282173;19;20181;-78
2023/08/30 05:05:07;;;;;;;31.43;13.07;;;14.90;99.90;;;;;;7183723;19;2005701;-78
2023/08/30 05:07:33;;;;;;;28.53;12.60;;;14.90;99.90;;;;;;7284826;19;20205;-76
2023/08/30 05:09:58;;;;;;;29.53;12.20;;;14.80;99.90;;;;;;7305083;19;20217;-77
2023/08/30 05:12:25;;;;;;;21.17;11.10;;;14.80;99.90;;;;;;7280898;19;20177;-77
2023/08/30 05:14:50;;;;;;;19.97;10.07;;;14.60;99.90;;;;;;7283042;19;20206;-77
2023/08/30 05:17:16;;;;;;;19.37;10.80;;;14.60;99.90;;;;;;7284579;19;20728;-81
2023/08/30 05:19:42;;;;;;;18.67;10.17;;;14.60;99.90;;;;;;7284078;19;20194;-77
2023/08/30 05:22:08;;;;;;;16.83;9.87;;;14.70;99.90;;;;;;7283396;19;20708;-77
2023/08/30 05:24:35;;;;;;;19.43;10.43;;;14.60;99.90;;;;;;7281717;19;20213;-78
2023/08/30 05:27:05;;;;;;;21.47;10.97;;;14.50;99.90;;;;;;7298161;19;20209;-77
2023/08/30 05:29:37;;;;;;;18.77;10.60;;;14.50;99.90;;;;;;7283478;19;20694;-78
2023/08/30 05:32:04;;;;;;;21.90;11.27;;;14.40;99.90;;;;;;7282906;19;20253;-76
2023/08/30 05:34:53;;;;;;;20.23;11.30;;;14.30;99.90;;;;;;7280801;19;20191;-76
2023/08/30 05:37:45;;;;;;;17.00;10.43;;;14.40;99.90;;;;;;7177083;19;2005216;-78
2023/08/30 05:40:29;;;;;;;16.73;10.47;;;14.50;99.90;;;;;;7279444;19;20220;-77
2023/08/30 05:42:55;;;;;;;18.07;10.40;;;14.40;99.90;;;;;;7281815;19;20188;-76
2023/08/30 05:45:22;;;;;;;16.07;9.43;;;14.50;99.90;;;;;;7281903;19;20619;-77
2023/08/30 05:47:48;;;;;;;15.97;9.57;;;14.50;99.90;;;;;;7282730;19;20188;-78
2023/08/30 05:50:14;;;;;;;17.03;9.20;;;14.60;99.90;;;;;;7282129;19;20248;-77
2023/08/30 05:52:44;;;;;;;16.60;9.60;;;14.60;99.90;;;;;;7282668;19;20188;-76
2023/08/30 05:55:10;;;;;;;14.30;8.70;;;14.70;99.90;;;;;;7281736;19;20189;-77
2023/08/30 05:57:37;;;;;;;14.93;8.87;;;14.70;99.90;;;;;;7280709;19;20769;-77
2023/08/30 06:00:04;;;;;;;15.47;8.83;;;14.70;99.90;;;;;;7280926;19;20225;-76
2023/08/30 06:02:40;;;;;;;16.53;8.27;;;14.80;99.90;;;;;;7279131;19;20196;-76
2023/08/30 06:05:06;;;;;;;15.17;8.00;;;14.80;99.90;;;;;;7276716;19;20215;-76
2023/08/30 06:07:32;;;;;;;15.73;8.37;;;14.90;99.90;;;;;;7282642;19;20215;-76
2023/08/30 06:09:58;;;;;;;13.83;7.60;;;15.00;99.90;;;;;;7302385;19;20185;-76
2023/08/30 06:12:25;;;;;;;16.97;7.30;;;15.10;99.90;;;;;;7282019;19;20335;-76
2023/08/30 06:14:52;;;;;;;13.23;7.77;;;15.10;99.90;;;;;;7280719;19;20555;-77
2023/08/30 06:17:21;;;;;;;11.60;7.23;;;15.10;99.90;;;;;;7281293;19;20250;-75
2023/08/30 06:19:47;;;;;;;12.87;7.33;;;15.00;99.90;;;;;;7281265;19;20660;-76
2023/08/30 06:22:13;;;;;;;12.33;7.13;;;15.10;99.90;;;;;;7281471;19;20202;-76
2023/08/30 06:24:38;;;;;;;12.43;7.13;;;15.10;99.90;;;;;;7280870;19;20225;-76
2023/08/30 06:27:05;;;;;;;12.00;6.80;;;15.20;99.90;;;;;;7281813;19;20193;-77
2023/08/30 06:29:30;;;;;;;16.60;8.03;;;15.30;99.90;;;;;;7298580;19;20284;-77
2023/08/30 06:31:58;;;;;;;12.37;7.20;;;15.40;99.90;;;;;;7291091;19;20268;-77
2023/08/30 06:34:23;;;;;;;12.00;7.43;;;15.40;99.90;;;;;;7280259;19;20196;-76
2023/08/30 06:36:49;;;;;;;13.30;7.80;;;15.40;99.90;;;;;;7281318;19;20258;-77
2023/08/30 06:39:17;;;;;;;13.50;7.30;;;15.40;99.90;;;;;;7281682;19;20253;-76
2023/08/30 06:41:42;;;;;;;13.13;7.63;;;15.50;99.90;;;;;;7280797;19;20187;-77
2023/08/30 06:44:10;;;;;;;12.93;7.47;;;15.50;99.90;;;;;;7281041;19;20320;-76
2023/08/30 06:46:37;;;;;;;11.63;7.60;;;15.60;99.90;;;;;;7280608;19;20183;-78
2023/08/30 06:49:03;;;;;;;11.50;7.53;;;15.60;99.90;;;;;;7280213;19;20245;-77
2023/08/30 06:51:29;;;;;;;12.67;7.60;;;15.50;99.90;;;;;;7301747;19;20198;-77
2023/08/30 06:54:00;;;;;;;13.33;8.07;;;15.50;99.90;;;;;;7283777;19;20206;-77
2023/08/30 06:56:28;;;;;;;14.80;8.37;;;15.60;99.90;;;;;;7280968;19;20186;-78
2023/08/30 06:58:54;;;;;;;14.57;8.10;;;15.60;99.90;;;;;;7282017;19;20264;-77
2023/08/30 07:01:20;;;;;;;13.60;7.80;;;15.40;99.90;;;;;;7281102;19;20239;-78
2023/08/30 07:03:45;;;;;;;15.53;8.33;;;15.30;99.90;;;;;;7280412;19;20206;-78
2023/08/30 07:06:11;;;;;;;13.47;8.07;;;15.30;99.90;;;;;;7283099;19;20662;-77
2023/08/30 07:08:38;;;;;;;16.37;8.43;;;15.30;99.90;;;;;;7281784;19;20661;-78
2023/08/30 07:11:04;;;;;;;14.90;8.30;;;15.30;99.90;;;;;;7281124;19;20264;-78
2023/08/30 07:13:29;;;;;;;13.47;7.50;;;15.30;99.90;;;;;;7304731;19;20685;-78
2023/08/30 07:15:55;;;;;;;14.77;7.73;;;15.40;99.90;;;;;;7280886;19;20873;-78
2023/08/30 07:18:21;;;;;;;12.07;7.10;;;15.30;99.90;;;;;;7283445;19;20199;-80
2023/08/30 07:20:46;;;;;;;16.23;7.90;;;15.30;99.90;;;;;;7284310;19;20185;-79
2023/08/30 07:23:12;;;;;;;11.87;7.20;;;15.30;99.90;;;;;;7282136;19;20185;-79
2023/08/30 07:25:38;;;;;;;13.20;7.10;;;15.40;99.90;;;;;;7282959;19;20185;-79
2023/08/30 07:28:05;;;;;;;11.73;7.23;;;15.50;99.90;;;;;;7283638;19;20243;-79
2023/08/30 07:30:31;;;;;;;15.00;7.77;;;15.60;99.90;;;;;;7298519;19;20190;-79
2023/08/30 07:32:56;;;;;;;12.27;7.37;;;15.70;99.90;;;;;;7293473;19;20222;-80
2023/08/30 07:35:22;;;;;;;11.73;6.67;;;15.80;99.90;;;;;;7280622;19;20210;-79
2023/08/30 07:37:48;;;;;;;11.67;6.77;;;15.80;99.90;;;;;;7282754;19;20249;-80
2023/08/30 07:40:14;;;;;;;11.67;6.30;;;15.90;99.90;;;;;;7283505;19;20194;-78
2023/08/30 07:42:40;;;;;;;11.40;6.23;;;15.90;99.90;;;;;;7280899;19;20186;-79
2023/08/30 07:45:06;;;;;;;10.93;5.77;;;15.90;99.90;;;;;;7283398;19;20197;-79
2023/08/30 07:47:32;;;;;;;11.90;6.47;;;16.00;99.90;;;;;;7288785;19;20215;-78
2023/08/30 07:49:57;;;;;;;11.33;5.73;;;16.00;99.90;;;;;;7303476;19;20182;-79
2023/08/30 07:52:23;;;;;;;11.50;5.97;;;16.10;99.90;;;;;;7281302;19;20215;-77
2023/08/30 07:54:50;;;;;;;10.37;5.50;;;16.10;99.90;;;;;;7280515;19;20647;-77
2023/08/30 07:57:16;;;;;;;10.53;5.93;;;16.00;99.90;;;;;;7281768;19;20663;-77
2023/08/30 07:59:42;;;;;;;11.53;5.87;;;15.90;99.90;;;;;;7284929;19;20189;-77
2023/08/30 08:02:08;;;;;;;12.07;6.30;;;15.80;99.90;;;;;;7288153;19;20189;-78
2023/08/30 08:04:35;;;;;;;11.70;6.73;;;15.70;99.90;;;;;;7287378;19;20208;-77
2023/08/30 08:07:01;;;;;;;16.17;7.10;;;15.80;99.90;;;;;;7307277;19;20198;-77
2023/08/30 08:09:28;;;;;;;15.70;7.60;;;15.80;99.90;;;;;;7301632;19;20186;-77
2023/08/30 08:11:54;;;;;;;17.43;7.13;;;15.90;99.90;;;;;;7286826;19;20193;-76
2023/08/30 08:14:19;;;;;;;16.47;7.87;;;16.00;99.90;;;;;;7284346;19;20191;-76
2023/08/30 08:16:47;;;;;;;16.70;7.40;;;16.10;99.90;;;;;;7284816;19;20636;-77
2023/08/30 08:19:12;;;;;;;15.90;7.20;;;16.10;99.90;;;;;;7284410;19;20190;-76
2023/08/30 08:21:38;;;;;;;16.03;7.73;;;16.20;99.90;;;;;;7285245;19;20658;-75
2023/08/30 08:24:04;;;;;;;15.40;7.13;;;16.40;99.90;;;;;;7284467;19;20228;-76
2023/08/30 08:26:30;;;;;;;13.60;6.83;;;16.60;99.90;;;;;;7307668;19;20643;-76
2023/08/30 08:28:57;;;;;;;13.13;6.23;;;16.70;99.90;;;;;;7284966;19;20191;-76
2023/08/30 08:31:23;;;;;;;16.00;6.83;;;16.80;99.90;;;;;;7286070;19;20216;-76
2023/08/30 08:34:09;;;;;;;11.87;5.50;;;16.90;99.90;;;;;;7284594;19;20198;-76
2023/08/30 08:36:36;;;;;;;10.70;4.67;;;17.00;99.90;;;;;;7261771;19;20190;-75
2023/08/30 08:39:04;;;;;;;11.07;5.50;;;17.10;99.90;;;;;;7289874;19;20649;-77
2023/08/30 08:41:36;;;;;;;9.67;5.37;;;17.20;99.90;;;;;;7302071;19;20176;-76
2023/08/30 08:44:04;;;;;;;10.50;4.97;;;17.40;99.90;;;;;;7268338;19;20181;-75
2023/08/30 08:46:32;;;;;;;10.47;4.93;;;17.40;99.90;;;;;;7302315;19;20252;-76
2023/08/30 08:49:01;;;;;;;9.53;5.07;;;17.40;99.90;;;;;;7280034;19;20184;-76
2023/08/30 08:51:28;;;;;;;10.17;4.83;;;17.50;99.90;;;;;;7279722;19;20196;-79
2023/08/30 08:54:00;;;;;;;9.97;5.67;;;17.50;99.90;;;;;;7285237;19;20208;-77
2023/08/30 08:56:26;;;;;;;9.27;5.23;;;17.50;99.90;;;;;;7285544;19;20225;-77
2023/08/30 08:58:52;;;;;;;9.47;5.57;;;17.60;99.90;;;;;;7286583;19;20638;-77
2023/08/30 09:01:18;;;;;;;10.00;5.40;;;17.70;99.90;;;;;;7285370;19;20222;-77
2023/08/30 09:03:46;;;;;;;10.93;6.40;;;17.80;99.90;;;;;;7285086;19;20197;-77
2023/08/30 09:06:12;;;;;;;10.80;5.77;;;18.10;99.90;;;;;;7284706;19;20193;-77
2023/08/30 09:08:38;;;;;;;9.87;5.63;;;18.40;99.90;;;;;;7285316;19;20249;-77
2023/08/30 09:11:03;;;;;;;8.93;5.63;;;18.70;99.90;;;;;;7280844;19;20348;-77
2023/08/30 09:13:32;;;;;;;11.63;6.00;;;18.70;99.90;;;;;;7308275;19;20845;-77
2023/08/30 09:15:58;;;;;;;7.87;4.80;;;18.80;99.90;;;;;;7284994;19;20194;-78
2023/08/30 09:18:27;;;;;;;9.63;5.20;;;18.90;99.90;;;;;;7284458;19;20185;-77
2023/08/30 09:21:06;;;;;;;10.13;5.47;;;19.00;99.90;;;;;;7283083;19;20203;-78
2023/08/30 09:23:33;;;;;;;9.43;4.73;;;18.90;99.90;;;;;;7270835;19;20205;-77
2023/08/30 09:26:00;;;;;;;8.47;4.83;;;18.80;99.90;;;;;;7306932;19;20247;-78
2023/08/30 09:28:26;;;;;;;9.90;5.27;;;18.80;99.90;;;;;;7284651;19;20638;-77
2023/08/30 09:30:57;;;;;;;6.37;4.30;;;18.80;99.90;;;;;;7284364;19;20533;-78
2023/08/30 09:33:29;;;;;;;9.10;4.93;;;18.70;99.90;;;;;;7284429;19;20188;-78
2023/08/30 09:35:55;;;;;;;9.27;5.00;;;19.00;99.90;;;;;;7285609;19;20185;-76
2023/08/30 09:38:21;;;;;;;7.27;4.77;;;19.40;99.90;;;;;;7287454;19;21951;-78
2023/08/30 09:40:47;;;;;;;7.40;4.13;;;19.70;99.90;;;;;;7284548;19;20187;-77
2023/08/30 09:43:14;;;;;;;6.77;4.20;;;19.90;99.90;;;;;;7283171;19;20197;-77
2023/08/30 09:45:41;;;;;;;8.40;4.10;;;19.70;99.90;;;;;;7284753;19;20207;-77
2023/08/30 09:48:07;;;;;;;6.27;3.90;;;19.70;99.90;;;;;;7281748;19;20180;-77
2023/08/30 09:50:35;;;;;;;6.87;4.27;;;19.80;99.90;;;;;;7282322;19;20181;-77
2023/08/30 09:53:07;;;;;;;7.50;4.27;;;19.90;99.90;;;;;;7304363;19;20187;-78
2023/08/30 09:55:34;;;;;;;6.00;4.17;;;19.90;99.90;;;;;;7260793;19;20203;-77
2023/08/30 09:58:04;;;;;;;8.47;4.17;;;19.60;99.90;;;;;;7304489;19;20183;-78
2023/08/30 10:00:31;;;;;;;8.57;4.53;;;19.50;99.90;;;;;;7283977;19;20187;-77
2023/08/30 10:02:58;;;;;;;6.97;3.90;;;19.50;99.90;;;;;;7281131;19;20214;-77
2023/08/30 10:05:25;;;;;;;6.77;3.90;;;19.60;99.90;;;;;;7283785;19;20282;-80
2023/08/30 10:07:53;;;;;;;7.87;4.40;;;19.50;99.90;;;;;;7282755;19;20223;-78
2023/08/30 10:10:20;;;;;;;8.53;4.57;;;19.40;99.90;;;;;;7286565;19;20185;-76
2023/08/30 10:12:46;;;;;;;6.30;4.03;;;19.10;99.90;;;;;;7286106;19;20520;-77
2023/08/30 10:15:12;;;;;;;8.80;5.50;;;18.90;99.90;;;;;;7283675;19;20274;-77
2023/08/30 10:17:46;;;;;;;9.73;5.30;;;18.80;99.90;;;;;;7282718;19;20193;-77
2023/08/30 10:20:12;;;;;;;9.87;5.90;;;18.90;99.90;;;;;;7281575;19;20189;-79
2023/08/30 10:22:39;;;;;;;9.73;5.87;;;19.10;99.90;;;;;;7281832;19;20249;-78
2023/08/30 10:25:21;;;;;;;10.57;6.23;;;19.10;99.90;;;;;;7282250;19;20184;-79
2023/08/30 10:27:49;;;;;;;14.13;5.97;;;19.20;99.90;;;;;;7282837;19;20189;-78
2023/08/30 10:30:17;;;;;;;10.70;6.13;;;19.40;99.90;;;;;;7282812;19;20195;-76
2023/08/30 10:32:45;;;;;;;9.60;5.67;;;19.60;99.90;;;;;;7282385;19;20185;-77
2023/08/30 10:35:15;;;;;;;13.43;6.10;;;19.90;99.90;;;;;;7281841;19;20600;-77
2023/08/30 10:37:42;;;;;;;10.27;5.80;;;20.20;99.90;;;;;;7281081;19;20184;-77
2023/08/30 10:40:09;;;;;;;11.20;5.70;;;20.70;99.90;;;;;;7280181;19;20231;-75
2023/08/30 10:42:35;;;;;;;12.43;6.03;;;20.90;99.90;;;;;;7279313;19;20616;-78
2023/08/30 10:45:01;;;;;;;9.80;5.77;;;21.20;99.90;;;;;;7302829;19;20668;-76
2023/08/30 10:47:31;;;;;;;12.43;5.90;;;21.20;99.90;;;;;;7281791;19;20183;-77
2023/08/30 10:50:00;;;;;;;12.30;6.57;;;21.30;99.90;;;;;;7280517;19;20189;-77
2023/08/30 10:52:30;;;;;;;8.47;6.10;;;21.40;99.90;;;;;;7277836;19;20187;-77
2023/08/30 10:55:11;;;;;;;9.90;6.43;;;21.70;99.90;;;;;;7280705;19;20187;-78
2023/08/30 10:57:41;;;;;;;10.43;5.53;;;22.10;99.90;;;;;;7178991;19;2004887;-79
2023/08/30 11:00:18;;;;;;;10.53;5.97;;;22.10;99.90;;;;;;7281632;19;20225;-77
2023/08/30 11:02:46;;;;;;;11.33;6.40;;;21.90;99.90;;;;;;7278288;19;20191;-77
2023/08/30 11:05:12;;;;;;;10.03;6.17;;;21.70;99.90;;;;;;7277537;19;20226;-78
2023/08/30 11:07:38;;;;;;;10.50;6.40;;;21.70;99.90;;;;;;7280102;19;20182;-78
2023/08/30 11:10:08;;;;;;;12.50;7.13;;;21.60;99.90;;;;;;7281198;19;20198;-77
2023/08/30 11:12:34;;;;;;;14.23;6.10;;;21.70;99.90;;;;;;7283063;19;20257;-78
2023/08/30 11:15:01;;;;;;;10.80;5.90;;;21.80;99.90;;;;;;7303672;19;20596;-78
2023/08/30 11:17:27;;;;;;;10.90;6.03;;;21.80;99.90;;;;;;7281801;19;20246;-78
2023/08/30 11:20:10;;;;;;;10.80;6.33;;;22.00;99.90;;;;;;7280094;19;20192;-78
2023/08/30 11:22:47;;;;;;;11.10;5.97;;;22.30;99.90;;;;;;7258911;19;20256;-77
2023/08/30 11:25:15;;;;;;;11.83;6.43;;;22.60;99.90;;;;;;7280619;19;20205;-77
2023/08/30 11:27:41;;;;;;;11.40;3.30;;;23.50;99.90;;;;;;7280777;19;20551;-78
2023/08/30 11:30:08;;;;;;;12.93;3.03;;;22.60;99.90;;;;;;7278002;19;20542;-76
2023/08/30 11:32:36;;;;;;;8.63;2.43;;;22.50;99.90;;;;;;7281302;19;20259;-76
2023/08/30 11:35:02;;;;;;;12.70;2.70;;;22.00;99.90;;;;;;7304116;19;20244;-77
2023/08/30 11:37:29;;;;;;;10.30;3.00;;;22.00;99.90;;;;;;7309500;19;20195;-77
2023/08/30 11:39:58;;;;;;;9.77;2.90;;;22.30;99.90;;;;;;7286149;19;20316;-77
2023/08/30 11:42:25;;;;;;;11.17;2.50;;;22.60;99.90;;;;;;7285724;19;20264;-78
2023/08/30 11:44:51;;;;;;;13.00;2.90;;;22.80;99.90;;;;;;7286574;19;20194;-78
2023/08/30 11:47:24;;;;;;;12.53;2.63;;;22.60;99.90;;;;;;7288901;19;20648;-79
2023/08/30 11:49:53;;;;;;;11.97;2.60;;;22.70;99.90;;;;;;7285894;19;20852;-79
2023/08/30 11:52:20;;;;;;;11.63;2.77;;;24.40;99.90;;;;;;7287378;19;20733;-78
2023/08/30 11:54:47;;;;;;;10.63;2.30;;;25.10;99.90;;;;;;7285140;19;20271;-80
2023/08/30 11:57:13;;;;;;;14.63;3.43;;;24.80;99.90;;;;;;7288508;19;20217;-79
2023/08/30 11:59:39;;;;;;;12.37;3.30;;;24.60;99.90;;;;;;7288055;19;20221;-78
2023/08/30 12:02:11;;;;;;;9.70;2.40;;;24.80;99.90;;;;;;7286651;19;20216;-78
2023/08/30 12:04:47;;;;;;;12.20;2.60;;;24.70;99.90;;;;;;7286292;19;20215;-80
2023/08/30 12:07:26;;;;;;;10.30;2.47;;;24.60;99.90;;;;;;7288397;19;20652;-80
2023/08/30 12:09:52;;;;;;;10.47;2.83;;;24.40;99.90;;;;;;7287514;19;20650;-79
2023/08/30 12:12:18;;;;;;;9.73;2.13;;;24.30;99.90;;;;;;7287613;19;20197;-80
2023/08/30 12:14:44;;;;;;;10.17;2.20;;;23.90;99.90;;;;;;7287330;19;20189;-80
2023/08/30 12:17:12;;;;;;;8.47;2.20;;;24.00;99.90;;;;;;7288158;19;20198;-80
2023/08/30 12:19:40;;;;;;;10.20;2.40;;;23.90;99.90;;;;;;7287560;19;20261;-79
2023/08/30 12:22:07;;;;;;;10.33;1.97;;;23.80;99.90;;;;;;7285849;19;20192;-80
2023/08/30 12:24:46;;;;;;;11.67;2.37;;;23.60;99.90;;;;;;7290894;19;20194;-80
2023/08/30 12:27:15;;;;;;;7.97;1.77;;;23.50;99.90;;;;;;7286743;19;20184;-80
2023/08/30 12:29:40;;;;;;;12.93;2.53;;;23.30;99.90;;;;;;7286923;19;20185;-80
2023/08/30 12:32:07;;;;;;;7.57;1.90;;;23.40;99.90;;;;;;7285308;19;20660;-80
2023/08/30 12:34:33;;;;;;;9.83;2.10;;;23.90;99.90;;;;;;7291162;19;20188;-80
2023/08/30 12:37:00;;;;;;;8.97;1.97;;;23.90;99.90;;;;;;7309585;19;20200;-81
2023/08/30 12:39:25;;;;;;;10.70;1.90;;;23.60;99.90;;;;;;7287165;19;20261;-80
2023/08/30 12:41:51;;;;;;;7.57;2.20;;;23.40;99.90;;;;;;7286778;19;21406;-80